Time;durP1;ratioP1;P1;durP2;ratioP2;P2;SDS_P1;SDS_P2;PMS_P1;PMS_P2;Temp;Humidity;BMP_temperature;BMP_pressure;BME280_temperature;BME280_humidity;BME280_pressure;Samples;Min_cycle;Max_cycle;Signal;HPM_P1;HPM_P2
2021/07/06 00:00:51;;;;;;;3.60;2.80;;;17.00;99.90;;;;;;5117593;27;20680;-36
2021/07/06 00:03:17;;;;;;;2.60;2.40;;;17.00;99.90;;;;;;5135602;27;20180;-36
2021/07/06 00:05:42;;;;;;;3.73;2.33;;;17.00;99.90;;;;;;5137770;27;20562;-36
2021/07/06 00:08:08;;;;;;;2.60;2.40;;;17.00;99.90;;;;;;5138493;27;20266;-36
2021/07/06 00:10:35;;;;;;;3.03;2.60;;;17.00;99.90;;;;;;5138674;27;20198;-37
2021/07/06 00:13:01;;;;;;;2.67;2.47;;;17.00;99.90;;;;;;5138111;27;20732;-37
2021/07/06 00:15:27;;;;;;;2.70;2.30;;;17.00;99.90;;;;;;5120171;27;20516;-36
2021/07/06 00:17:56;;;;;;;2.90;2.30;;;17.00;99.90;;;;;;5137263;27;20440;-37
2021/07/06 00:20:26;;;;;;;3.40;2.63;;;17.00;99.90;;;;;;5138605;27;20416;-37
2021/07/06 00:22:51;;;;;;;2.90;2.53;;;17.00;99.90;;;;;;5135282;27;20450;-37
2021/07/06 00:25:17;;;;;;;2.90;2.60;;;17.00;99.90;;;;;;5134800;27;20829;-36
2021/07/06 00:27:43;;;;;;;2.60;2.40;;;17.00;99.90;;;;;;5135076;27;20446;-37
2021/07/06 00:30:10;;;;;;;2.60;2.40;;;17.00;99.90;;;;;;5116923;27;20270;-37
2021/07/06 00:32:35;;;;;;;2.93;2.63;;;17.00;99.90;;;;;;5135662;27;20432;-37
2021/07/06 00:35:01;;;;;;;2.37;2.17;;;17.00;99.90;;;;;;5135581;27;20447;-37
2021/07/06 00:37:27;;;;;;;2.53;2.33;;;16.90;99.90;;;;;;5136900;27;20226;-35
2021/07/06 00:39:53;;;;;;;3.20;2.37;;;16.80;99.90;;;;;;5138809;27;20443;-36
2021/07/06 00:42:18;;;;;;;3.07;2.37;;;16.80;99.90;;;;;;5137917;27;20183;-36
2021/07/06 00:44:46;;;;;;;2.50;2.17;;;16.80;99.90;;;;;;5138554;27;20202;-36
2021/07/06 00:47:11;;;;;;;4.00;2.73;;;16.70;99.90;;;;;;5138216;27;20446;-36
2021/07/06 00:49:37;;;;;;;2.40;2.20;;;16.70;99.90;;;;;;5138240;27;20553;-36
2021/07/06 00:52:04;;;;;;;2.30;2.10;;;16.70;99.90;;;;;;5138259;27;20194;-37
2021/07/06 00:54:30;;;;;;;3.00;2.40;;;16.70;99.90;;;;;;5137953;27;20218;-36
2021/07/06 00:56:55;;;;;;;3.07;2.40;;;16.70;99.90;;;;;;5137220;27;20682;-38
2021/07/06 00:59:21;;;;;;;4.77;2.40;;;16.70;99.90;;;;;;5137830;27;20193;-37
2021/07/06 01:01:50;;;;;;;3.97;2.73;;;16.70;99.90;;;;;;5138301;27;20240;-36
2021/07/06 01:04:17;;;;;;;2.70;2.33;;;16.60;99.90;;;;;;5139042;27;20188;-37
2021/07/06 01:06:42;;;;;;;2.33;2.13;;;16.60;99.90;;;;;;5139308;27;20739;-37
2021/07/06 01:09:09;;;;;;;3.53;2.43;;;16.50;99.90;;;;;;5138907;27;20416;-36
2021/07/06 01:12:25;;;;;;;3.10;2.60;;;16.50;99.90;;;;;;5121150;27;20175;-37
2021/07/06 01:14:50;;;;;;;3.77;2.50;;;16.50;99.90;;;;;;5139068;27;20428;-36
2021/07/06 01:17:28;;;;;;;4.80;2.87;;;16.50;99.90;;;;;;5139239;27;20488;-37
2021/07/06 01:19:55;;;;;;;2.80;2.60;;;16.50;99.90;;;;;;5139016;27;20194;-37
2021/07/06 01:22:31;;;;;;;3.30;2.90;;;16.50;99.90;;;;;;5121021;27;20519;-36
2021/07/06 01:24:58;;;;;;;2.87;2.57;;;16.50;99.90;;;;;;5139430;27;20424;-37
2021/07/06 01:27:24;;;;;;;3.40;2.63;;;16.50;99.90;;;;;;5120998;27;20417;-36
2021/07/06 01:29:49;;;;;;;3.47;2.90;;;16.50;99.90;;;;;;5139246;27;20440;-36
2021/07/06 01:32:15;;;;;;;5.20;2.80;;;16.50;99.90;;;;;;5139317;27;20417;-38
2021/07/06 01:34:41;;;;;;;3.13;2.47;;;16.40;99.90;;;;;;5139428;27;20179;-37
2021/07/06 01:37:07;;;;;;;4.57;3.13;;;16.50;99.90;;;;;;5139120;27;20428;-39
2021/07/06 01:39:32;;;;;;;3.17;2.40;;;16.40;99.90;;;;;;5139119;27;20183;-36
2021/07/06 01:41:58;;;;;;;4.73;2.80;;;16.40;99.90;;;;;;5138133;27;20182;-37
2021/07/06 01:44:25;;;;;;;4.67;3.03;;;16.40;99.90;;;;;;5138593;27;20194;-37
2021/07/06 01:46:52;;;;;;;2.90;2.50;;;16.40;99.90;;;;;;5137888;27;20468;-37
2021/07/06 01:49:18;;;;;;;2.57;2.37;;;16.30;99.90;;;;;;5137207;27;20424;-36
2021/07/06 01:51:44;;;;;;;3.00;2.37;;;16.30;99.90;;;;;;5137547;28;20405;-36
2021/07/06 01:54:11;;;;;;;4.07;3.30;;;16.30;99.90;;;;;;5135980;28;20493;-36
2021/07/06 01:56:42;;;;;;;3.50;3.17;;;16.30;99.90;;;;;;5137142;28;20414;-37
2021/07/06 01:59:08;;;;;;;6.00;3.23;;;16.30;99.90;;;;;;5137573;28;20459;-35
2021/07/06 02:01:35;;;;;;;3.40;2.67;;;16.30;99.90;;;;;;5138196;28;20447;-37
2021/07/06 02:04:01;;;;;;;2.77;2.57;;;16.30;99.90;;;;;;5138348;28;20178;-37
2021/07/06 02:06:28;;;;;;;2.80;2.60;;;16.30;99.90;;;;;;5139111;28;20877;-36
2021/07/06 02:08:54;;;;;;;3.40;2.97;;;16.30;99.90;;;;;;5138332;27;20902;-37
2021/07/06 02:11:20;;;;;;;3.80;2.90;;;16.20;99.90;;;;;;5138535;28;20445;-37
2021/07/06 02:13:46;;;;;;;4.13;3.13;;;16.20;99.90;;;;;;5137684;28;20171;-37
2021/07/06 02:16:11;;;;;;;2.70;2.40;;;16.20;99.90;;;;;;5138745;28;20425;-35
2021/07/06 02:18:38;;;;;;;2.90;2.60;;;16.20;99.90;;;;;;5137816;28;20205;-36
2021/07/06 02:21:04;;;;;;;2.97;2.50;;;16.20;99.90;;;;;;5138179;28;20183;-36
2021/07/06 02:23:30;;;;;;;2.60;2.40;;;16.20;99.90;;;;;;5138406;28;20801;-36
2021/07/06 02:25:58;;;;;;;3.23;2.93;;;16.10;99.90;;;;;;5137276;28;20491;-36
2021/07/06 02:28:24;;;;;;;2.67;2.47;;;16.10;99.90;;;;;;5136755;28;20412;-36
2021/07/06 02:30:50;;;;;;;3.43;3.13;;;16.10;99.90;;;;;;5137323;28;20425;-37
2021/07/06 02:33:16;;;;;;;3.13;2.43;;;16.10;99.90;;;;;;5137200;28;20214;-37
2021/07/06 02:35:42;;;;;;;4.07;2.70;;;16.00;99.90;;;;;;5137287;28;20567;-37
2021/07/06 02:38:08;;;;;;;2.80;2.60;;;16.00;99.90;;;;;;5138032;28;20492;-36
2021/07/06 02:40:34;;;;;;;4.13;2.90;;;16.00;99.90;;;;;;5138328;28;20190;-36
2021/07/06 02:43:00;;;;;;;3.30;2.70;;;16.00;99.90;;;;;;5138178;28;20428;-37
2021/07/06 02:45:26;;;;;;;3.20;2.90;;;16.00;99.90;;;;;;5138333;28;20514;-36
2021/07/06 02:47:52;;;;;;;3.70;2.80;;;16.00;99.90;;;;;;5138048;28;20995;-34
2021/07/06 02:50:20;;;;;;;4.83;2.83;;;15.90;99.90;;;;;;5138306;28;20473;-35
2021/07/06 02:52:46;;;;;;;3.50;3.07;;;15.80;99.90;;;;;;5138470;28;20637;-36
2021/07/06 02:55:13;;;;;;;3.13;2.80;;;15.80;99.90;;;;;;5138049;28;20900;-37
2021/07/06 02:57:41;;;;;;;3.67;3.10;;;15.80;99.90;;;;;;5137621;28;20426;-37
2021/07/06 03:00:24;;;;;;;3.20;2.80;;;15.80;99.90;;;;;;5137958;28;20705;-37
2021/07/06 03:02:55;;;;;;;2.60;2.40;;;15.70;99.90;;;;;;5138502;28;20423;-36
2021/07/06 03:05:23;;;;;;;3.20;2.53;;;15.70;99.90;;;;;;5140924;27;20468;-36
2021/07/06 03:07:49;;;;;;;4.83;2.90;;;15.70;99.90;;;;;;5141730;27;20408;-36
2021/07/06 03:10:26;;;;;;;2.70;2.50;;;15.60;99.90;;;;;;5141821;27;20538;-38
2021/07/06 03:12:53;;;;;;;3.00;2.70;;;15.70;99.90;;;;;;5142015;27;20473;-36
2021/07/06 03:15:21;;;;;;;3.63;3.33;;;15.70;99.90;;;;;;5141063;27;20424;-36
2021/07/06 03:17:47;;;;;;;3.17;2.87;;;15.70;99.90;;;;;;5140741;27;20408;-37
2021/07/06 03:20:16;;;;;;;2.93;2.63;;;15.70;99.90;;;;;;5140873;27;20830;-36
2021/07/06 03:22:42;;;;;;;3.70;3.40;;;15.70;99.90;;;;;;5140759;27;20802;-37
2021/07/06 03:25:09;;;;;;;3.70;2.83;;;15.70;99.90;;;;;;5140126;27;20440;-36
2021/07/06 03:27:36;;;;;;;2.80;2.60;;;15.60;99.90;;;;;;5140461;27;20824;-37
2021/07/06 03:30:05;;;;;;;5.70;2.90;;;15.60;99.90;;;;;;5121890;27;20461;-37
2021/07/06 03:32:30;;;;;;;4.17;3.43;;;15.60;99.90;;;;;;5140014;27;20477;-36
2021/07/06 03:34:56;;;;;;;3.73;2.80;;;15.60;99.90;;;;;;5140245;27;20834;-36
2021/07/06 03:37:22;;;;;;;3.80;3.20;;;15.60;99.90;;;;;;5140080;27;20207;-36
2021/07/06 03:39:47;;;;;;;2.60;2.40;;;15.60;99.90;;;;;;5140302;27;20179;-36
2021/07/06 03:42:13;;;;;;;4.23;2.70;;;15.70;99.90;;;;;;5140917;27;20179;-36
2021/07/06 03:44:39;;;;;;;5.70;4.50;;;15.70;99.90;;;;;;5140990;27;20183;-37
2021/07/06 03:47:05;;;;;;;3.00;2.73;;;15.80;99.90;;;;;;5140789;27;20210;-39
2021/07/06 03:49:32;;;;;;;2.60;2.40;;;15.80;99.90;;;;;;5140868;27;20236;-36
2021/07/06 03:51:58;;;;;;;3.30;2.60;;;15.80;99.90;;;;;;5121402;27;20413;-36
2021/07/06 03:54:23;;;;;;;4.40;3.00;;;15.80;99.90;;;;;;5140006;27;20476;-36
2021/07/06 03:56:49;;;;;;;3.40;3.10;;;15.90;99.90;;;;;;5139675;27;20436;-37
2021/07/06 03:59:15;;;;;;;3.77;2.57;;;16.00;99.90;;;;;;5139504;27;20448;-36
2021/07/06 04:01:40;;;;;;;2.97;2.67;;;16.00;99.90;;;;;;5139533;27;20186;-38
2021/07/06 04:04:06;;;;;;;3.90;3.00;;;16.00;99.90;;;;;;5139626;27;20197;-37
2021/07/06 04:06:31;;;;;;;2.73;2.40;;;16.10;99.90;;;;;;5139960;27;20526;-37
2021/07/06 04:08:57;;;;;;;4.83;2.43;;;16.10;99.90;;;;;;5138680;27;20175;-37
2021/07/06 04:11:23;;;;;;;3.60;2.40;;;16.20;99.90;;;;;;5120588;27;20175;-38
2021/07/06 04:13:49;;;;;;;3.03;2.60;;;16.20;99.90;;;;;;5138641;27;20201;-36
2021/07/06 04:16:16;;;;;;;3.10;2.80;;;16.30;99.90;;;;;;5137812;27;20181;-36
2021/07/06 04:18:41;;;;;;;2.90;2.70;;;16.30;99.90;;;;;;5137423;27;20924;-36
2021/07/06 04:21:07;;;;;;;3.90;2.53;;;16.40;99.90;;;;;;5136824;27;20503;-37
2021/07/06 04:23:34;;;;;;;2.80;2.60;;;16.40;99.90;;;;;;5139183;27;20185;-37
2021/07/06 04:26:00;;;;;;;3.60;2.73;;;16.50;99.90;;;;;;5139276;27;20472;-36
2021/07/06 04:28:25;;;;;;;2.80;2.60;;;16.50;99.90;;;;;;5139522;27;20674;-37
2021/07/06 04:30:51;;;;;;;2.60;2.40;;;16.60;99.90;;;;;;5121059;27;20436;-37
2021/07/06 04:33:17;;;;;;;2.60;2.30;;;16.70;99.90;;;;;;5138853;27;20163;-37
2021/07/06 04:35:42;;;;;;;4.47;2.70;;;16.70;99.90;;;;;;5138538;27;20418;-37
2021/07/06 04:38:08;;;;;;;2.30;2.10;;;16.80;99.90;;;;;;5137871;27;20179;-36
2021/07/06 04:40:34;;;;;;;2.50;2.03;;;16.90;99.90;;;;;;5139466;27;20187;-37
2021/07/06 04:43:01;;;;;;;2.80;1.77;;;16.90;99.90;;;;;;5139185;27;20186;-37
2021/07/06 04:45:26;;;;;;;2.60;2.40;;;17.00;99.90;;;;;;5138884;27;20267;-37
2021/07/06 04:47:52;;;;;;;4.27;2.10;;;17.10;99.90;;;;;;5139300;27;20417;-37
2021/07/06 04:50:18;;;;;;;4.90;2.33;;;17.30;99.90;;;;;;5139206;27;20528;-37
2021/07/06 04:52:46;;;;;;;2.93;2.67;;;17.50;99.90;;;;;;5138570;27;20179;-38
2021/07/06 04:55:13;;;;;;;3.33;2.53;;;17.70;99.90;;;;;;5136667;27;20473;-37
2021/07/06 04:57:38;;;;;;;2.40;2.20;;;17.90;99.90;;;;;;5137437;27;20424;-38
2021/07/06 05:00:05;;;;;;;2.60;2.40;;;18.10;99.90;;;;;;5133786;27;20838;-37
2021/07/06 05:02:31;;;;;;;2.40;2.20;;;18.30;99.90;;;;;;5134819;27;20334;-37
2021/07/06 05:04:58;;;;;;;2.33;2.13;;;18.40;99.90;;;;;;5116673;27;20835;-37
2021/07/06 05:07:23;;;;;;;2.97;2.60;;;18.40;99.90;;;;;;5133713;27;20468;-37
2021/07/06 05:09:49;;;;;;;2.60;2.13;;;18.50;99.90;;;;;;5134480;27;20454;-38
2021/07/06 05:12:15;;;;;;;3.47;2.67;;;18.40;99.90;;;;;;5136478;27;20171;-38
2021/07/06 05:14:40;;;;;;;2.90;2.50;;;18.50;99.90;;;;;;5135355;27;20183;-37
2021/07/06 05:17:06;;;;;;;3.17;2.87;;;18.50;99.90;;;;;;5136014;27;20207;-37
2021/07/06 05:19:32;;;;;;;2.93;2.73;;;18.50;99.90;;;;;;5136229;27;20187;-37
2021/07/06 05:21:58;;;;;;;2.70;2.50;;;18.50;99.90;;;;;;5136423;27;20210;-36
2021/07/06 05:24:24;;;;;;;3.30;2.50;;;18.60;99.90;;;;;;5138553;27;20232;-37
2021/07/06 05:26:50;;;;;;;2.60;2.40;;;18.70;99.90;;;;;;5137259;27;20468;-37
2021/07/06 05:29:15;;;;;;;3.20;2.57;;;18.80;99.90;;;;;;5118032;27;20771;-40
2021/07/06 05:31:41;;;;;;;3.00;2.70;;;18.90;99.90;;;;;;5118558;27;20167;-37
2021/07/06 05:34:07;;;;;;;2.30;2.10;;;19.00;99.90;;;;;;5136624;27;20179;-37
2021/07/06 05:36:33;;;;;;;2.73;2.53;;;19.00;99.90;;;;;;5137255;27;20731;-39
2021/07/06 05:38:59;;;;;;;3.57;2.30;;;19.10;99.90;;;;;;5134104;27;20633;-36
2021/07/06 05:41:25;;;;;;;3.57;2.70;;;19.10;99.90;;;;;;5135129;27;20558;-37
2021/07/06 05:43:51;;;;;;;2.70;2.10;;;19.20;99.90;;;;;;5136004;27;20205;-37
2021/07/06 05:46:18;;;;;;;5.10;2.27;;;19.30;99.50;;;;;;5134724;27;20468;-38
2021/07/06 05:48:44;;;;;;;3.40;2.27;;;19.50;99.50;;;;;;5134205;27;20827;-37
2021/07/06 05:51:10;;;;;;;2.77;2.53;;;19.60;99.50;;;;;;5133044;27;20412;-40
2021/07/06 05:53:36;;;;;;;2.83;2.53;;;19.80;99.60;;;;;;5113423;28;20806;-38
2021/07/06 05:56:01;;;;;;;4.60;2.47;;;19.80;99.60;;;;;;5131644;28;20219;-39
2021/07/06 05:58:27;;;;;;;3.37;3.07;;;20.00;99.50;;;;;;5131204;28;20607;-38
2021/07/06 06:00:52;;;;;;;3.70;2.77;;;20.20;99.00;;;;;;5133813;28;20229;-38
2021/07/06 06:03:18;;;;;;;3.60;2.97;;;20.30;98.90;;;;;;5133966;28;20253;-38
2021/07/06 06:05:44;;;;;;;3.07;2.57;;;20.40;98.60;;;;;;5135754;28;20217;-38
2021/07/06 06:08:13;;;;;;;3.37;2.90;;;20.40;99.00;;;;;;5137896;28;20170;-38
2021/07/06 06:10:39;;;;;;;3.23;2.83;;;20.50;98.80;;;;;;5138804;28;20201;-37
2021/07/06 06:13:05;;;;;;;3.80;2.53;;;20.70;98.40;;;;;;5138400;28;20420;-39
2021/07/06 06:15:31;;;;;;;2.60;2.40;;;20.80;97.90;;;;;;5137447;28;20283;-40
2021/07/06 06:17:57;;;;;;;3.00;1.80;;;21.10;97.90;;;;;;5137311;28;20167;-39
2021/07/06 06:20:22;;;;;;;3.50;1.93;;;21.30;97.30;;;;;;5136485;28;20455;-40
2021/07/06 06:22:48;;;;;;;3.40;2.63;;;21.50;97.30;;;;;;5134382;28;20413;-39
2021/07/06 06:25:14;;;;;;;4.17;3.23;;;21.70;96.00;;;;;;5134333;28;20183;-39
2021/07/06 06:27:40;;;;;;;2.67;2.47;;;21.90;95.80;;;;;;5135672;28;20439;-39
2021/07/06 06:30:07;;;;;;;2.90;2.23;;;22.00;95.70;;;;;;5134800;28;20212;-40
2021/07/06 06:32:33;;;;;;;3.33;2.97;;;22.20;95.20;;;;;;5134417;28;20413;-38
2021/07/06 06:34:58;;;;;;;3.00;2.53;;;22.10;94.80;;;;;;5117509;28;20427;-39
2021/07/06 06:37:24;;;;;;;2.30;1.93;;;22.10;94.80;;;;;;5136157;28;20171;-39
2021/07/06 06:39:50;;;;;;;2.93;2.00;;;22.30;94.40;;;;;;5137442;27;20584;-39
2021/07/06 06:42:16;;;;;;;3.07;2.30;;;22.50;94.60;;;;;;5139768;27;20171;-38
2021/07/06 06:44:42;;;;;;;2.63;2.00;;;22.60;94.00;;;;;;5122579;27;20439;-40
2021/07/06 06:47:07;;;;;;;1.77;1.60;;;22.60;93.40;;;;;;5138788;27;20472;-40
2021/07/06 06:49:33;;;;;;;1.90;1.70;;;22.70;93.80;;;;;;5140784;27;20171;-39
2021/07/06 06:51:59;;;;;;;5.83;2.10;;;22.60;94.00;;;;;;5141503;27;20279;-38
2021/07/06 06:54:25;;;;;;;3.67;1.90;;;22.80;93.90;;;;;;5140988;27;20909;-40
2021/07/06 06:56:50;;;;;;;2.17;1.80;;;22.90;94.00;;;;;;5140149;27;20171;-38
2021/07/06 06:59:16;;;;;;;2.77;1.87;;;22.90;93.30;;;;;;5140651;27;20214;-39
2021/07/06 07:01:44;;;;;;;2.07;1.87;;;22.80;93.90;;;;;;5140848;27;20236;-39
2021/07/06 07:04:10;;;;;;;1.60;1.50;;;23.20;94.00;;;;;;5140466;27;20194;-40
2021/07/06 07:06:36;;;;;;;2.67;2.07;;;23.80;93.60;;;;;;5141319;27;21080;-39
2021/07/06 07:09:03;;;;;;;3.67;1.77;;;24.20;92.30;;;;;;5122306;27;20433;-39
2021/07/06 07:11:29;;;;;;;2.00;1.90;;;24.30;91.90;;;;;;5139311;27;20235;-41
2021/07/06 07:13:55;;;;;;;2.27;1.90;;;24.10;91.90;;;;;;5138196;27;20432;-39
2021/07/06 07:16:20;;;;;;;1.70;1.50;;;24.10;92.40;;;;;;5138238;27;20636;-39
2021/07/06 07:18:46;;;;;;;4.20;1.60;;;24.30;92.10;;;;;;5139441;27;20433;-41
2021/07/06 07:21:12;;;;;;;3.43;2.03;;;24.50;91.50;;;;;;5102673;27;20338;-39
2021/07/06 07:23:38;;;;;;;5.97;1.80;;;24.70;91.00;;;;;;5120384;27;20171;-39
2021/07/06 07:26:04;;;;;;;1.90;1.63;;;24.60;90.50;;;;;;5138437;27;20592;-39
2021/07/06 07:28:30;;;;;;;2.03;1.50;;;24.70;90.20;;;;;;5138611;27;20738;-40
2021/07/06 07:30:55;;;;;;;2.53;1.80;;;24.60;90.50;;;;;;5138922;27;20424;-39
2021/07/06 07:33:21;;;;;;;3.10;2.00;;;24.80;90.80;;;;;;5137370;27;20188;-39
2021/07/06 07:35:47;;;;;;;2.07;1.77;;;25.00;90.10;;;;;;5137228;27;20242;-39
2021/07/06 07:38:12;;;;;;;2.73;1.90;;;24.60;90.20;;;;;;5119950;27;20202;-39
2021/07/06 07:40:38;;;;;;;1.90;1.70;;;24.60;90.60;;;;;;5138971;27;20187;-39
2021/07/06 07:43:07;;;;;;;2.40;1.80;;;24.90;90.80;;;;;;5139367;27;20457;-39
2021/07/06 07:45:34;;;;;;;1.90;1.63;;;25.10;90.20;;;;;;5105320;27;20676;-38
2021/07/06 07:48:00;;;;;;;2.60;2.00;;;25.50;89.30;;;;;;5138771;27;20404;-40
2021/07/06 07:50:26;;;;;;;4.03;2.10;;;25.50;87.80;;;;;;5125954;27;21031;-39
2021/07/06 07:52:51;;;;;;;3.10;2.03;;;25.40;88.40;;;;;;5118534;28;20179;-39
2021/07/06 07:55:17;;;;;;;2.10;1.90;;;25.60;88.10;;;;;;5118330;28;20476;-38
2021/07/06 07:57:43;;;;;;;2.93;1.80;;;25.70;88.40;;;;;;5117290;28;20195;-38
2021/07/06 08:00:11;;;;;;;3.87;1.80;;;25.60;88.80;;;;;;5118607;27;20176;-38
2021/07/06 08:02:37;;;;;;;1.83;1.60;;;25.80;88.40;;;;;;5142246;27;20703;-39
2021/07/06 08:05:03;;;;;;;3.20;1.80;;;25.60;88.90;;;;;;5140032;27;20501;-39
2021/07/06 08:07:30;;;;;;;2.37;1.77;;;25.40;88.80;;;;;;5137752;27;20227;-39
2021/07/06 08:09:56;;;;;;;1.90;1.60;;;25.10;88.30;;;;;;5101212;27;20439;-39
2021/07/06 08:12:21;;;;;;;1.60;1.43;;;25.00;88.90;;;;;;5134549;27;20417;-38
2021/07/06 08:14:49;;;;;;;2.33;1.70;;;25.00;89.80;;;;;;5133257;27;20412;-38
2021/07/06 08:17:15;;;;;;;3.27;1.80;;;25.30;90.20;;;;;;5132459;27;20303;-39
2021/07/06 08:19:40;;;;;;;2.60;1.67;;;25.50;88.90;;;;;;5096519;27;20413;-38
2021/07/06 08:22:06;;;;;;;3.33;1.83;;;25.60;87.60;;;;;;5134036;27;20330;-39
2021/07/06 08:24:32;;;;;;;2.13;1.93;;;25.90;88.20;;;;;;5135367;27;20548;-38
2021/07/06 08:26:57;;;;;;;2.00;1.80;;;26.10;87.50;;;;;;5134909;27;20301;-38
2021/07/06 08:29:24;;;;;;;2.50;1.73;;;26.10;85.70;;;;;;5116475;27;20171;-38
2021/07/06 08:31:49;;;;;;;2.10;1.73;;;26.40;87.40;;;;;;5136626;27;20488;-38
2021/07/06 08:34:15;;;;;;;2.53;1.90;;;26.30;86.40;;;;;;5137732;27;20409;-39
2021/07/06 08:36:41;;;;;;;2.37;1.60;;;26.60;86.00;;;;;;5137078;27;20200;-38
2021/07/06 08:39:07;;;;;;;3.87;1.77;;;27.00;84.10;;;;;;5136022;27;20262;-38
2021/07/06 08:41:35;;;;;;;2.30;2.10;;;26.90;82.50;;;;;;5135436;27;20179;-39
2021/07/06 08:44:01;;;;;;;4.27;2.07;;;26.30;82.60;;;;;;5136351;27;20454;-38
2021/07/06 08:46:27;;;;;;;2.13;1.93;;;25.90;84.80;;;;;;5137210;27;20487;-38
2021/07/06 08:48:54;;;;;;;2.60;1.77;;;26.00;86.00;;;;;;5117803;27;20672;-38
2021/07/06 08:51:21;;;;;;;4.40;2.00;;;26.00;86.40;;;;;;5117817;27;20428;-38
2021/07/06 08:53:47;;;;;;;2.97;2.23;;;25.90;89.00;;;;;;5137603;27;20408;-38
2021/07/06 08:56:13;;;;;;;2.43;2.07;;;25.90;88.10;;;;;;5138177;27;20468;-37
2021/07/06 08:58:39;;;;;;;3.93;2.13;;;25.20;89.70;;;;;;5135753;27;20416;-38
2021/07/06 09:01:05;;;;;;;2.63;2.43;;;25.10;90.90;;;;;;5137253;27;20857;-38
2021/07/06 09:03:55;;;;;;;4.30;2.40;;;24.90;90.60;;;;;;5137300;27;20201;-38
2021/07/06 09:06:22;;;;;;;4.67;2.20;;;24.60;90.70;;;;;;5135134;27;20218;-38
2021/07/06 09:08:52;;;;;;;2.60;1.70;;;24.70;90.40;;;;;;5136561;27;20404;-40
2021/07/06 09:11:19;;;;;;;3.80;2.10;;;24.90;90.50;;;;;;5119110;27;20428;-39
2021/07/06 09:13:44;;;;;;;3.10;2.20;;;24.80;90.50;;;;;;5136324;27;20421;-38
2021/07/06 09:16:22;;;;;;;4.07;2.20;;;24.90;90.80;;;;;;5136319;27;20722;-39
2021/07/06 09:18:48;;;;;;;2.23;1.70;;;24.60;90.90;;;;;;5135079;27;20174;-39
2021/07/06 09:21:15;;;;;;;2.80;1.73;;;24.50;91.10;;;;;;5117770;27;20904;-38
2021/07/06 09:23:49;;;;;;;2.50;1.93;;;24.40;91.40;;;;;;5118383;27;20413;-37
2021/07/06 09:26:22;;;;;;;2.57;2.10;;;24.30;91.80;;;;;;5120309;27;20525;-39
2021/07/06 09:28:54;;;;;;;3.07;2.27;;;24.20;92.30;;;;;;5120969;27;20416;-39
2021/07/06 09:31:29;;;;;;;3.60;2.10;;;24.10;92.10;;;;;;5138815;27;20509;-37
2021/07/06 09:33:57;;;;;;;2.80;2.40;;;24.00;92.40;;;;;;5138357;27;20841;-39
2021/07/06 09:36:26;;;;;;;5.77;2.13;;;23.80;93.50;;;;;;5137027;27;20527;-37
2021/07/06 09:39:22;;;;;;;3.70;2.33;;;23.60;93.70;;;;;;5135774;27;20448;-39
2021/07/06 09:42:00;;;;;;;3.97;2.60;;;23.20;94.50;;;;;;5113196;27;20441;-37
2021/07/06 09:44:34;;;;;;;3.13;2.23;;;23.00;95.30;;;;;;5136104;27;20446;-38
2021/07/06 09:47:07;;;;;;;2.33;2.13;;;23.00;95.50;;;;;;5117714;27;20472;-39
2021/07/06 09:49:43;;;;;;;2.07;1.77;;;23.10;95.40;;;;;;5136115;27;20419;-39
2021/07/06 09:52:16;;;;;;;2.60;1.90;;;23.50;94.40;;;;;;5134213;27;20420;-39
2021/07/06 09:55:07;;;;;;;1.50;1.40;;;23.80;94.10;;;;;;5142718;28;20456;-38
2021/07/06 09:57:37;;;;;;;1.70;1.33;;;24.10;92.80;;;;;;5138333;28;20453;-39
2021/07/06 10:00:11;;;;;;;2.20;1.13;;;24.40;92.10;;;;;;5136417;28;20507;-41
2021/07/06 10:02:37;;;;;;;1.50;1.23;;;24.40;91.70;;;;;;5137387;28;20751;-40
2021/07/06 10:05:07;;;;;;;2.63;1.00;;;24.40;91.80;;;;;;5137405;28;20822;-39
2021/07/06 10:07:35;;;;;;;1.73;0.90;;;24.30;91.70;;;;;;5136588;28;21034;-39
2021/07/06 10:10:01;;;;;;;5.10;0.97;;;24.10;91.40;;;;;;5137279;28;20747;-38
2021/07/06 10:12:26;;;;;;;2.40;0.97;;;23.90;91.80;;;;;;5137074;28;20433;-39
2021/07/06 10:14:52;;;;;;;2.33;0.90;;;23.70;92.10;;;;;;5120551;27;20171;-37
2021/07/06 10:17:20;;;;;;;1.37;0.80;;;23.40;92.30;;;;;;5138552;27;20179;-38
2021/07/06 10:19:46;;;;;;;1.70;1.20;;;23.40;93.00;;;;;;5140323;27;20418;-39
2021/07/06 10:22:13;;;;;;;1.50;0.90;;;23.60;92.90;;;;;;5137602;27;20798;-39
2021/07/06 10:24:44;;;;;;;1.30;0.90;;;23.80;92.40;;;;;;5138473;27;20267;-38
2021/07/06 10:27:21;;;;;;;1.30;0.97;;;23.70;92.20;;;;;;5139356;27;20742;-39
2021/07/06 10:29:47;;;;;;;1.63;0.77;;;23.90;92.10;;;;;;5137653;27;20408;-41
2021/07/06 10:32:38;;;;;;;1.10;0.70;;;24.10;92.00;;;;;;5138005;27;21063;-37
2021/07/06 10:35:06;;;;;;;1.40;1.13;;;24.20;92.20;;;;;;5138144;27;20827;-39
2021/07/06 10:37:32;;;;;;;0.90;0.60;;;24.30;92.20;;;;;;5137546;27;20443;-38
2021/07/06 10:40:22;;;;;;;0.90;0.57;;;24.10;91.40;;;;;;5138692;27;20393;-37
2021/07/06 10:42:51;;;;;;;1.07;0.70;;;23.90;91.80;;;;;;5139278;27;20298;-39
2021/07/06 10:45:24;;;;;;;1.00;0.70;;;23.80;91.90;;;;;;5139275;27;20720;-38
2021/07/06 10:47:54;;;;;;;1.37;0.67;;;23.70;92.10;;;;;;5121986;27;20476;-38
2021/07/06 10:50:43;;;;;;;1.00;0.60;;;23.50;92.30;;;;;;5141230;27;20435;-39
2021/07/06 10:53:16;;;;;;;1.00;0.70;;;23.30;92.80;;;;;;5141338;27;20825;-40
2021/07/06 10:55:44;;;;;;;1.30;0.77;;;23.40;92.80;;;;;;5140712;27;20503;-38
2021/07/06 10:58:10;;;;;;;1.60;0.90;;;23.20;92.90;;;;;;5138562;27;20415;-38
2021/07/06 11:00:43;;;;;;;0.93;0.60;;;23.00;92.60;;;;;;5103936;27;20456;-38
2021/07/06 11:03:19;;;;;;;1.30;0.80;;;22.80;93.10;;;;;;5139305;27;20521;-37
2021/07/06 11:05:44;;;;;;;2.50;1.17;;;23.00;93.20;;;;;;5138590;27;20837;-38
2021/07/06 11:08:41;;;;;;;1.40;0.70;;;23.20;93.00;;;;;;5137988;27;20641;-37
2021/07/06 11:11:07;;;;;;;1.40;0.97;;;23.40;92.20;;;;;;5137100;27;20493;-37
2021/07/06 11:13:33;;;;;;;2.93;1.60;;;23.40;92.20;;;;;;5139285;27;20428;-36
2021/07/06 11:16:01;;;;;;;1.30;1.10;;;23.40;91.90;;;;;;5142871;27;20420;-38
2021/07/06 11:18:34;;;;;;;2.37;1.87;;;23.60;92.20;;;;;;5104721;27;20185;-36
2021/07/06 11:21:00;;;;;;;1.30;1.20;;;23.80;91.60;;;;;;5139134;27;20424;-36
2021/07/06 11:23:31;;;;;;;3.07;0.93;;;23.80;91.40;;;;;;5140594;27;20419;-37
2021/07/06 11:26:05;;;;;;;0.90;0.57;;;23.50;92.00;;;;;;5105254;27;20283;-36
2021/07/06 11:28:31;;;;;;;1.00;0.80;;;23.40;91.90;;;;;;5140961;27;20420;-36
2021/07/06 11:31:02;;;;;;;2.47;0.60;;;23.60;91.60;;;;;;5138752;27;20413;-37
2021/07/06 11:33:30;;;;;;;1.83;0.70;;;23.50;91.90;;;;;;5139732;27;20709;-36
2021/07/06 11:36:07;;;;;;;0.90;0.60;;;23.30;92.30;;;;;;5136786;27;20435;-39
2021/07/06 11:38:44;;;;;;;1.37;0.77;;;23.40;92.10;;;;;;5137074;27;20415;-37
2021/07/06 11:41:13;;;;;;;1.60;0.70;;;23.40;92.10;;;;;;5136661;27;20416;-37
2021/07/06 11:43:39;;;;;;;1.10;0.77;;;23.50;92.00;;;;;;5135605;27;20666;-37
2021/07/06 11:46:06;;;;;;;1.03;0.67;;;23.40;92.00;;;;;;5135750;27;20461;-37
2021/07/06 11:48:37;;;;;;;1.50;0.80;;;23.20;92.50;;;;;;5142730;27;20413;-36
2021/07/06 11:51:07;;;;;;;1.80;0.60;;;22.80;93.00;;;;;;5140112;27;20413;-38
2021/07/06 11:53:34;;;;;;;2.10;0.77;;;22.70;93.40;;;;;;5139048;27;20412;-37
2021/07/06 11:56:01;;;;;;;2.60;0.77;;;22.50;94.10;;;;;;5139116;27;20473;-39
2021/07/06 11:58:30;;;;;;;1.20;0.60;;;22.40;94.50;;;;;;5139348;27;20400;-37
2021/07/06 12:01:00;;;;;;;1.00;0.50;;;22.30;94.70;;;;;;5137803;27;20524;-38
2021/07/06 12:03:27;;;;;;;1.07;0.60;;;22.40;94.80;;;;;;5137762;27;20401;-38
2021/07/06 12:06:02;;;;;;;1.67;0.60;;;22.30;95.10;;;;;;5139021;27;20593;-37
2021/07/06 12:08:33;;;;;;;2.03;0.97;;;22.50;95.70;;;;;;5138775;27;20408;-38
2021/07/06 12:11:18;;;;;;;1.10;0.60;;;22.50;95.50;;;;;;5138534;27;20421;-37
2021/07/06 12:13:43;;;;;;;1.83;0.70;;;22.50;94.80;;;;;;5137243;27;20405;-36
2021/07/06 12:16:15;;;;;;;1.20;0.80;;;22.50;95.00;;;;;;5138079;27;20457;-36
2021/07/06 12:19:09;;;;;;;1.43;0.70;;;22.60;94.70;;;;;;5139938;27;20273;-37
2021/07/06 12:21:39;;;;;;;0.90;0.50;;;22.90;94.40;;;;;;5140035;27;20428;-37
2021/07/06 12:24:05;;;;;;;1.50;1.00;;;23.00;94.40;;;;;;5121066;27;20858;-37
2021/07/06 12:26:31;;;;;;;1.07;0.67;;;23.10;94.60;;;;;;5115819;28;20738;-39
2021/07/06 12:28:57;;;;;;;1.00;0.70;;;23.20;94.00;;;;;;5098354;28;20412;-38
2021/07/06 12:31:33;;;;;;;0.93;0.70;;;23.20;93.80;;;;;;5118497;28;20852;-37
2021/07/06 12:34:15;;;;;;;1.30;0.80;;;23.20;94.20;;;;;;5100706;28;20568;-37
2021/07/06 12:36:46;;;;;;;1.23;0.83;;;23.10;93.60;;;;;;5116263;28;20436;-38
2021/07/06 12:39:33;;;;;;;1.83;1.37;;;22.80;94.20;;;;;;5119422;28;20421;-37
2021/07/06 12:41:59;;;;;;;1.67;1.07;;;22.80;94.60;;;;;;5100596;28;20596;-39
2021/07/06 12:44:41;;;;;;;1.93;1.10;;;22.80;94.70;;;;;;5115763;28;20409;-37
2021/07/06 12:47:14;;;;;;;1.73;1.50;;;22.70;94.90;;;;;;5115209;28;20366;-38
2021/07/06 12:49:43;;;;;;;1.33;0.97;;;22.50;95.60;;;;;;5115430;28;20448;-38
2021/07/06 12:52:09;;;;;;;2.10;1.40;;;22.50;95.60;;;;;;5113651;28;20460;-37